Time;durP1;ratioP1;P1;durP2;ratioP2;P2;SDS_P1;SDS_P2;PMS_P1;PMS_P2;Temp;Humidity;BMP_temperature;BMP_pressure;BME280_temperature;BME280_humidity;BME280_pressure;Samples;Min_cycle;Max_cycle;Signal;HPM_P1;HPM_P2
2022/07/23 00:02:14;;;;;;;;;;;;;;;24.01;100.00;99161.34;5051731;28;19997;-39
2022/07/23 00:04:39;;;;;;;;;;;;;;;24.17;100.00;99174.03;5052295;28;19928;-40
2022/07/23 00:07:05;;;;;;;;;;;;;;;23.86;100.00;99183.72;5052872;28;19955;-39
2022/07/23 00:09:31;;;;;;;;;;;;;;;23.35;100.00;99179.16;5049258;28;19935;-39
2022/07/23 00:11:56;;;;;;;;;;;;;;;23.25;100.00;99184.34;5051950;28;19955;-39
2022/07/23 00:14:21;;;;;;;;;;;;;;;22.70;100.00;99197.47;5051931;28;20582;-39
2022/07/23 00:16:46;;;;;;;;;;;;;;;22.33;100.00;99202.16;5050959;28;19928;-39
2022/07/23 00:19:12;;;;;;;;;;;;;;;22.45;100.00;99189.88;5049541;28;19999;-39
2022/07/23 00:21:37;;;;;;;;;;;;;;;23.15;100.00;99178.19;5051511;28;19961;-39
2022/07/23 00:24:02;;;;;;;;;;;;;;;22.81;100.00;99186.13;5051278;28;20373;-39
2022/07/23 00:26:27;;;;;;;;;;;;;;;21.52;100.00;99190.75;5051147;28;19920;-39
2022/07/23 00:28:53;;;;;;;;;;;;;;;21.51;100.00;99189.94;5050938;28;20860;-39
2022/07/23 00:31:18;;;;;;;;;;;;;;;22.04;100.00;99186.00;5051367;28;19924;-39
2022/07/23 00:33:43;;;;;;;;;;;;;;;21.81;100.00;99185.97;5050815;28;19928;-39
2022/07/23 00:36:08;;;;;;;;;;;;;;;22.25;100.00;99188.78;5048488;28;19927;-39
2022/07/23 00:38:34;;;;;;;;;;;;;;;22.67;100.00;99189.00;5051656;28;19927;-39
2022/07/23 00:40:59;;;;;;;;;;;;;;;23.09;100.00;99191.81;5050798;28;20697;-39
2022/07/23 00:43:24;;;;;;;;;;;;;;;23.75;100.00;99181.16;5049048;28;20027;-39
2022/07/23 00:45:50;;;;;;;;;;;;;;;23.90;100.00;99168.50;5050243;28;19926;-39
2022/07/23 00:48:15;;;;;;;;;;;;;;;24.15;100.00;99168.09;5049550;28;19982;-40
2022/07/23 00:50:40;;;;;;;;;;;;;;;23.60;100.00;99172.72;5050771;28;19955;-41
2022/07/23 00:53:05;;;;;;;;;;;;;;;23.68;100.00;99164.19;5049829;28;20021;-40
2022/07/23 00:55:31;;;;;;;;;;;;;;;23.26;100.00;99170.25;5050784;28;19959;-40
2022/07/23 00:57:56;;;;;;;;;;;;;;;22.85;100.00;99182.28;5050372;28;19962;-40
2022/07/23 01:00:21;;;;;;;;;;;;;;;23.20;100.00;99201.47;5049929;28;20832;-40
2022/07/23 01:02:46;;;;;;;;;;;;;;;23.76;100.00;99194.16;5051917;28;20297;-40
2022/07/23 01:05:12;;;;;;;;;;;;;;;24.03;100.00;99190.19;5051276;28;20266;-40
2022/07/23 01:07:37;;;;;;;;;;;;;;;24.08;100.00;99153.78;5049808;28;19920;-40
2022/07/23 01:10:03;;;;;;;;;;;;;;;23.76;100.00;99128.41;5050862;28;19924;-41
2022/07/23 01:12:28;;;;;;;;;;;;;;;23.62;100.00;99123.47;5048945;28;20343;-41
2022/07/23 01:14:54;;;;;;;;;;;;;;;23.75;100.00;99129.41;5049346;28;20726;-41
2022/07/23 01:17:20;;;;;;;;;;;;;;;23.84;100.00;99132.22;5051081;28;19935;-41
2022/07/23 01:19:45;;;;;;;;;;;;;;;22.65;100.00;99146.28;5050364;28;19920;-40
2022/07/23 01:22:10;;;;;;;;;;;;;;;22.22;100.00;99142.63;5051508;28;20030;-41
2022/07/23 01:24:35;;;;;;;;;;;;;;;23.27;100.00;99132.50;5055284;28;19921;-41
2022/07/23 01:27:01;;;;;;;;;;;;;;;23.82;100.00;99136.78;5056898;28;20003;-41
2022/07/23 01:29:26;;;;;;;;;;;;;;;23.82;100.00;99142.84;5055506;28;20019;-41
2022/07/23 01:31:51;;;;;;;;;;;;;;;24.19;100.00;99143.16;5054733;28;19931;-41
2022/07/23 01:34:16;;;;;;;;;;;;;;;23.72;100.00;99137.53;5057903;28;19912;-41
2022/07/23 01:36:42;;;;;;;;;;;;;;;23.08;100.00;99132.34;5056305;28;19967;-42
2022/07/23 01:39:07;;;;;;;;;;;;;;;23.00;100.00;99116.38;5055005;28;20563;-42
2022/07/23 01:41:32;;;;;;;;;;;;;;;23.77;100.00;99105.59;5058387;28;20797;-41
2022/07/23 01:43:58;;;;;;;;;;;;;;;23.00;100.00;99122.47;5055907;28;19978;-41
2022/07/23 01:46:23;;;;;;;;;;;;;;;22.00;100.00;99111.97;5057652;28;19920;-41
2022/07/23 01:48:48;;;;;;;;;;;;;;;23.21;100.00;99109.34;5054586;28;20484;-41
2022/07/23 01:51:13;;;;;;;;;;;;;;;22.48;100.00;99114.34;5056034;28;20735;-41
2022/07/23 01:53:39;;;;;;;;;;;;;;;21.33;100.00;99115.28;5057098;28;20023;-42
2022/07/23 01:56:04;;;;;;;;;;;;;;;21.60;100.00;99114.16;5058647;28;20017;-41
2022/07/23 01:58:29;;;;;;;;;;;;;;;22.54;100.00;99124.34;5055158;28;19984;-41
2022/07/23 02:00:55;;;;;;;;;;;;;;;22.94;100.00;99121.16;5056672;28;20429;-42
2022/07/23 02:03:20;;;;;;;;;;;;;;;21.97;100.00;99106.13;5055941;28;20448;-41
2022/07/23 02:05:45;;;;;;;;;;;;;;;21.18;100.00;99096.28;5055917;28;19927;-41
2022/07/23 02:08:12;;;;;;;;;;;;;;;21.67;100.00;99099.69;5056217;28;21351;-41
2022/07/23 02:10:37;;;;;;;;;;;;;;;22.38;100.00;99099.47;5056978;28;19920;-41
2022/07/23 02:13:03;;;;;;;;;;;;;;;22.83;100.00;99100.19;5056934;28;20163;-40
2022/07/23 02:15:28;;;;;;;;;;;;;;;22.96;100.00;99106.09;5057567;28;20857;-40
2022/07/23 02:17:54;;;;;;;;;;;;;;;23.33;100.00;99100.47;5055140;28;19920;-40
2022/07/23 02:20:19;;;;;;;;;;;;;;;22.94;100.00;99092.28;5055537;28;20030;-40
2022/07/23 02:22:44;;;;;;;;;;;;;;;22.82;100.00;99088.00;5057017;28;20361;-40
2022/07/23 02:25:09;;;;;;;;;;;;;;;22.57;100.00;99088.31;5057043;28;19959;-40
2022/07/23 02:27:35;;;;;;;;;;;;;;;22.44;100.00;99089.31;5057857;28;20488;-40
2022/07/23 02:30:00;;;;;;;;;;;;;;;22.31;100.00;99088.63;5056894;28;20007;-40
2022/07/23 02:32:25;;;;;;;;;;;;;;;22.67;100.00;99086.59;5054581;28;19951;-40
2022/07/23 02:34:51;;;;;;;;;;;;;;;22.25;100.00;99078.59;5054143;28;19925;-40
2022/07/23 02:37:16;;;;;;;;;;;;;;;21.64;100.00;99085.00;5055033;28;19947;-40
2022/07/23 02:39:41;;;;;;;;;;;;;;;21.76;100.00;99082.38;5054648;28;19924;-40
2022/07/23 02:42:07;;;;;;;;;;;;;;;21.82;100.00;99087.16;5051092;28;20003;-40
2022/07/23 02:44:32;;;;;;;;;;;;;;;22.60;100.00;99074.94;5051694;28;19946;-40
2022/07/23 02:46:57;;;;;;;;;;;;;;;21.86;100.00;99078.13;5054651;28;19927;-40
2022/07/23 02:49:22;;;;;;;;;;;;;;;22.04;100.00;99076.69;5053651;28;19928;-40
2022/07/23 02:51:48;;;;;;;;;;;;;;;22.33;100.00;99065.72;5052542;28;19921;-40
2022/07/23 02:54:13;;;;;;;;;;;;;;;21.66;100.00;99061.28;5053203;28;20171;-40
2022/07/23 02:56:38;;;;;;;;;;;;;;;21.48;100.00;99058.28;5054594;28;19969;-40
2022/07/23 02:59:03;;;;;;;;;;;;;;;21.85;100.00;99058.06;5051344;28;20317;-40
2022/07/23 03:01:28;;;;;;;;;;;;;;;21.63;100.00;99065.00;5050421;28;19926;-40
2022/07/23 03:03:54;;;;;;;;;;;;;;;22.15;100.00;99065.34;5050618;28;20015;-40
2022/07/23 03:06:19;;;;;;;;;;;;;;;22.47;100.00;99068.06;5051560;28;19928;-41
2022/07/23 03:08:44;;;;;;;;;;;;;;;22.50;100.00;99073.06;5053979;28;19952;-40
2022/07/23 03:11:12;;;;;;;;;;;;;;;22.86;100.00;99080.72;5053187;28;20007;-40
2022/07/23 03:13:38;;;;;;;;;;;;;;;22.88;100.00;99086.69;5053323;28;19921;-40
2022/07/23 03:16:03;;;;;;;;;;;;;;;22.11;100.00;99093.59;5052234;28;20767;-40
2022/07/23 03:18:29;;;;;;;;;;;;;;;22.19;100.00;99093.03;5053381;28;19921;-40
2022/07/23 03:20:54;;;;;;;;;;;;;;;22.83;100.00;99092.31;5052465;28;20449;-40
2022/07/23 03:23:19;;;;;;;;;;;;;;;23.16;100.00;99085.25;5050381;28;19946;-40
2022/07/23 03:25:46;;;;;;;;;;;;;;;22.82;100.00;99093.25;5050637;28;19928;-40
2022/07/23 03:28:11;;;;;;;;;;;;;;;22.13;100.00;99091.69;5052228;28;19920;-40
2022/07/23 03:30:37;;;;;;;;;;;;;;;21.55;100.00;99096.19;5051980;28;20506;-40
2022/07/23 03:33:02;;;;;;;;;;;;;;;21.97;100.00;99100.88;5052428;28;20614;-40
2022/07/23 03:35:27;;;;;;;;;;;;;;;22.55;100.00;99097.13;5051070;28;20438;-40
2022/07/23 03:37:52;;;;;;;;;;;;;;;22.25;100.00;99099.59;5053064;28;19923;-40
2022/07/23 03:40:18;;;;;;;;;;;;;;;22.02;100.00;99094.31;5052818;28;19920;-40
2022/07/23 03:42:43;;;;;;;;;;;;;;;21.74;100.00;99100.03;5052240;28;19928;-40
2022/07/23 03:45:08;;;;;;;;;;;;;;;22.05;100.00;99104.56;5048839;28;19959;-40
2022/07/23 03:47:34;;;;;;;;;;;;;;;21.20;100.00;99104.03;5051705;28;19999;-40
2022/07/23 03:49:59;;;;;;;;;;;;;;;21.24;100.00;99103.72;5051115;28;19924;-40
2022/07/23 03:52:24;;;;;;;;;;;;;;;21.28;100.00;99099.91;5052319;28;20426;-40
2022/07/23 03:54:49;;;;;;;;;;;;;;;21.80;100.00;99094.31;5046494;28;20396;-40
2022/07/23 03:57:15;;;;;;;;;;;;;;;22.23;100.00;99096.25;5051347;28;20007;-40
2022/07/23 03:59:40;;;;;;;;;;;;;;;22.00;100.00;99096.22;5052583;28;19921;-40
2022/07/23 04:02:05;;;;;;;;;;;;;;;22.69;100.00;99095.19;5053159;28;19920;-40
2022/07/23 04:04:30;;;;;;;;;;;;;;;22.69;100.00;99095.19;5052408;28;19931;-40
2022/07/23 04:06:55;;;;;;;;;;;;;;;22.34;100.00;99096.22;5051141;28;21838;-40
2022/07/23 04:09:21;;;;;;;;;;;;;;;22.25;100.00;99099.59;5049942;28;19951;-40
2022/07/23 04:11:46;;;;;;;;;;;;;;;22.28;100.00;99099.34;5051633;28;19927;-40
2022/07/23 04:14:11;;;;;;;;;;;;;;;20.69;100.00;99099.91;5050891;28;19960;-40
2022/07/23 04:16:36;;;;;;;;;;;;;;;22.05;100.00;99096.69;5051458;28;20454;-40
2022/07/23 04:19:04;;;;;;;;;;;;;;;22.49;100.00;99097.66;5049290;28;19974;-40
2022/07/23 04:21:29;;;;;;;;;;;;;;;22.63;100.00;99100.97;5051396;28;19978;-40
2022/07/23 04:23:54;;;;;;;;;;;;;;;22.52;100.00;99102.63;5052340;28;19924;-40
2022/07/23 04:26:21;;;;;;;;;;;;;;;22.70;100.00;99105.59;5050929;28;20633;-40
2022/07/23 04:28:46;;;;;;;;;;;;;;;22.25;100.00;99107.47;5048991;28;20625;-40
2022/07/23 04:31:11;;;;;;;;;;;;;;;22.11;100.00;99106.72;5051432;28;20622;-40
2022/07/23 04:33:36;;;;;;;;;;;;;;;22.45;100.00;99106.72;5051463;28;19927;-40
2022/07/23 04:36:02;;;;;;;;;;;;;;;22.38;100.00;99105.53;5050722;28;19931;-40
2022/07/23 04:38:27;;;;;;;;;;;;;;;22.48;100.00;99100.38;5051788;28;20016;-40
2022/07/23 04:40:52;;;;;;;;;;;;;;;22.53;100.00;99101.69;5049779;28;19920;-40
2022/07/23 04:43:18;;;;;;;;;;;;;;;22.86;100.00;99099.94;5052648;28;20374;-40
2022/07/23 04:45:43;;;;;;;;;;;;;;;22.63;100.00;99104.41;5049063;28;19967;-40
2022/07/23 04:48:08;;;;;;;;;;;;;;;22.40;100.00;99108.88;5050924;28;19963;-40
2022/07/23 04:50:34;;;;;;;;;;;;;;;22.60;100.00;99109.88;5051341;28;20313;-40
2022/07/23 04:52:59;;;;;;;;;;;;;;;22.77;100.00;99119.06;5051593;28;19920;-40
2022/07/23 04:55:24;;;;;;;;;;;;;;;22.78;100.00;99112.81;5050623;28;19920;-40
2022/07/23 04:57:49;;;;;;;;;;;;;;;23.02;100.00;99115.31;5048800;28;19920;-40
2022/07/23 05:00:15;;;;;;;;;;;;;;;23.04;100.00;99112.56;5049195;28;19921;-40
2022/07/23 05:02:40;;;;;;;;;;;;;;;23.18;100.00;99120.13;5049262;28;19947;-40
2022/07/23 05:05:06;;;;;;;;;;;;;;;23.22;100.00;99111.03;5049838;28;19927;-40
2022/07/23 05:07:31;;;;;;;;;;;;;;;23.23;100.00;99115.31;5051065;28;19920;-40
2022/07/23 05:09:56;;;;;;;;;;;;;;;23.11;100.00;99113.72;5050837;28;19920;-40
2022/07/23 05:12:21;;;;;;;;;;;;;;;23.33;100.00;99112.75;5051060;28;20649;-40
2022/07/23 05:14:47;;;;;;;;;;;;;;;23.24;100.00;99119.63;5049673;28;20072;-40
2022/07/23 05:17:12;;;;;;;;;;;;;;;22.47;100.00;99132.84;5049232;28;20345;-40
2022/07/23 05:19:37;;;;;;;;;;;;;;;21.95;100.00;99129.84;5049522;28;20161;-40
2022/07/23 05:22:02;;;;;;;;;;;;;;;22.89;100.00;99136.44;5048968;28;19920;-40
2022/07/23 05:24:28;;;;;;;;;;;;;;;23.31;100.00;99136.56;5048573;28;19978;-40
2022/07/23 05:26:53;;;;;;;;;;;;;;;22.52;100.00;99142.00;5049059;28;19962;-40
2022/07/23 05:29:18;;;;;;;;;;;;;;;22.87;100.00;99148.03;5049286;28;19942;-40
2022/07/23 05:31:44;;;;;;;;;;;;;;;23.33;100.00;99144.28;5051598;28;19916;-40
2022/07/23 05:34:09;;;;;;;;;;;;;;;22.69;100.00;99145.94;5050402;28;19925;-40
2022/07/23 05:36:34;;;;;;;;;;;;;;;23.26;100.00;99149.22;5050883;28;20031;-40
2022/07/23 05:38:59;;;;;;;;;;;;;;;23.58;100.00;99148.34;5047234;28;19943;-40
2022/07/23 05:41:25;;;;;;;;;;;;;;;22.90;100.00;99156.50;5049289;28;19947;-40
2022/07/23 05:43:50;;;;;;;;;;;;;;;22.81;100.00;99159.88;5051721;28;19931;-40
2022/07/23 05:46:15;;;;;;;;;;;;;;;22.59;100.00;99165.16;5050624;28;20404;-40
2022/07/23 05:48:42;;;;;;;;;;;;;;;22.51;100.00;99156.09;5047287;28;20489;-40
2022/07/23 05:51:07;;;;;;;;;;;;;;;23.11;100.00;99155.75;5049508;28;19920;-40
2022/07/23 05:53:32;;;;;;;;;;;;;;;23.51;100.00;99160.34;5050472;28;21035;-40
2022/07/23 05:55:58;;;;;;;;;;;;;;;23.52;100.00;99151.50;5049429;28;20453;-40
2022/07/23 05:58:23;;;;;;;;;;;;;;;22.93;100.00;99158.88;5049462;28;20075;-40
2022/07/23 06:00:49;;;;;;;;;;;;;;;22.58;100.00;99158.22;5048813;28;19920;-40
2022/07/23 06:03:14;;;;;;;;;;;;;;;22.93;100.00;99158.88;5050985;28;19931;-40
2022/07/23 06:05:39;;;;;;;;;;;;;;;23.02;100.00;99165.22;5050637;28;20046;-40
2022/07/23 06:08:04;;;;;;;;;;;;;;;23.36;100.00;99160.66;5050708;28;19966;-40
2022/07/23 06:10:29;;;;;;;;;;;;;;;23.37;100.00;99162.31;5054610;28;19952;-40
2022/07/23 06:12:55;;;;;;;;;;;;;;;22.34;100.00;99172.31;5056206;28;20095;-40
2022/07/23 06:15:20;;;;;;;;;;;;;;;21.70;100.00;99168.41;5053179;28;19920;-40
2022/07/23 06:17:45;;;;;;;;;;;;;;;21.47;100.00;99167.50;5050818;28;20381;-40
2022/07/23 06:20:11;;;;;;;;;;;;;;;22.52;100.00;99165.63;5051926;28;19968;-40
2022/07/23 06:22:36;;;;;;;;;;;;;;;23.33;100.00;99171.44;5054354;28;20110;-40
2022/07/23 06:25:02;;;;;;;;;;;;;;;23.23;100.00;99170.50;5053766;28;19924;-40
2022/07/23 06:27:27;;;;;;;;;;;;;;;23.62;100.00;99168.16;5053859;28;19927;-40
2022/07/23 06:29:52;;;;;;;;;;;;;;;23.77;100.00;99173.97;5052659;28;20345;-40
2022/07/23 06:32:17;;;;;;;;;;;;;;;21.97;100.00;99183.00;5052393;28;19964;-40
2022/07/23 06:34:43;;;;;;;;;;;;;;;22.06;100.00;99179.69;5051127;28;19995;-40
2022/07/23 06:37:08;;;;;;;;;;;;;;;22.57;100.00;99181.00;5055681;28;19920;-40
2022/07/23 06:39:33;;;;;;;;;;;;;;;23.73;100.00;99189.13;5054614;28;19923;-40
2022/07/23 06:41:58;;;;;;;;;;;;;;;23.88;100.00;99192.31;5052527;28;20621;-40
2022/07/23 06:44:24;;;;;;;;;;;;;;;22.44;100.00;99198.69;5052533;28;19981;-40
2022/07/23 06:46:49;;;;;;;;;;;;;;;21.85;100.00;99195.28;5049940;28;19920;-40
2022/07/23 06:49:14;;;;;;;;;;;;;;;23.21;100.00;99193.44;5051849;28;19924;-40
2022/07/23 06:51:39;;;;;;;;;;;;;;;23.71;100.00;99195.50;5053366;28;19936;-40
2022/07/23 06:54:05;;;;;;;;;;;;;;;23.08;100.00;99198.88;5053871;28;20031;-40
2022/07/23 06:56:30;;;;;;;;;;;;;;;22.27;100.00;99197.38;5052820;28;20390;-40
2022/07/23 06:58:55;;;;;;;;;;;;;;;24.25;100.00;99201.53;5053739;28;19924;-40
2022/07/23 07:01:21;;;;;;;;;;;;;;;23.99;100.00;99210.66;5054135;28;20417;-40
2022/07/23 07:03:46;;;;;;;;;;;;;;;24.60;100.00;99201.13;5054240;28;20040;-40
2022/07/23 07:06:11;;;;;;;;;;;;;;;24.14;100.00;99203.25;5053769;28;19971;-40
2022/07/23 07:08:37;;;;;;;;;;;;;;;23.43;100.00;99217.97;5052900;28;19967;-40
2022/07/23 07:11:02;;;;;;;;;;;;;;;24.01;100.00;99207.88;5053846;28;19916;-40
2022/07/23 07:13:28;;;;;;;;;;;;;;;24.54;100.00;99210.41;5053979;28;19920;-40
2022/07/23 07:15:53;;;;;;;;;;;;;;;23.25;100.00;99221.13;5052943;28;20393;-40
2022/07/23 07:18:18;;;;;;;;;;;;;;;24.16;100.00;99213.66;5054528;28;19916;-40
2022/07/23 07:20:43;;;;;;;;;;;;;;;24.34;100.00;99211.25;5052917;28;19998;-40
2022/07/23 07:23:09;;;;;;;;;;;;;;;22.70;100.00;99228.97;5036027;28;19924;-40
2022/07/23 07:25:34;;;;;;;;;;;;;;;22.84;100.00;99227.06;5044797;28;19920;-40
2022/07/23 07:27:59;;;;;;;;;;;;;;;22.31;100.00;99222.44;5053622;28;19939;-40
2022/07/23 07:30:24;;;;;;;;;;;;;;;22.82;100.00;99229.78;5050513;28;20004;-40
2022/07/23 07:32:50;;;;;;;;;;;;;;;23.11;100.00;99226.69;5052697;28;20240;-40
2022/07/23 07:35:15;;;;;;;;;;;;;;;24.28;100.00;99225.75;5054337;28;19963;-40
2022/07/23 07:37:40;;;;;;;;;;;;;;;23.97;100.00;99232.78;5052063;28;19927;-40
2022/07/23 07:40:06;;;;;;;;;;;;;;;24.72;100.00;99233.44;5053316;28;19923;-40
2022/07/23 07:42:32;;;;;;;;;;;;;;;24.84;100.00;99237.66;5054502;28;20024;-40
2022/07/23 07:44:57;;;;;;;;;;;;;;;25.74;100.00;99231.38;5054026;28;20249;-39
2022/07/23 07:47:22;;;;;;;;;;;;;;;24.03;100.00;99242.78;5052344;28;19920;-40
2022/07/23 07:49:47;;;;;;;;;;;;;;;24.17;100.00;99245.09;5050615;28;19929;-40
2022/07/23 07:52:13;;;;;;;;;;;;;;;25.13;100.00;99247.41;5053380;28;19941;-39
2022/07/23 07:54:38;;;;;;;;;;;;;;;25.64;100.00;99235.84;5051205;28;19920;-39
2022/07/23 07:57:03;;;;;;;;;;;;;;;24.84;100.00;99248.22;5053350;28;19916;-40
2022/07/23 07:59:28;;;;;;;;;;;;;;;24.96;100.00;99251.56;5050031;28;20366;-40
2022/07/23 08:01:54;;;;;;;;;;;;;;;23.87;100.00;99252.94;5052477;28;19921;-39
2022/07/23 08:04:19;;;;;;;;;;;;;;;23.55;100.00;99259.84;5053096;28;20353;-39
2022/07/23 08:06:44;;;;;;;;;;;;;;;23.43;100.00;99260.03;5053564;28;20443;-39
2022/07/23 08:09:09;;;;;;;;;;;;;;;24.74;100.00;99258.69;5050102;28;19967;-39
2022/07/23 08:11:35;;;;;;;;;;;;;;;24.72;100.00;99259.78;5052010;28;19960;-39
2022/07/23 08:14:00;;;;;;;;;;;;;;;25.30;100.00;99265.25;5051980;28;19978;-39
2022/07/23 08:16:25;;;;;;;;;;;;;;;25.67;100.00;99259.31;5054185;28;19954;-39
2022/07/23 08:18:50;;;;;;;;;;;;;;;25.98;100.00;99256.50;5053027;28;20093;-39
2022/07/23 08:21:15;;;;;;;;;;;;;;;24.74;100.00;99273.66;5053629;28;20301;-39
2022/07/23 08:23:41;;;;;;;;;;;;;;;26.51;100.00;99255.97;5052430;28;19951;-39
2022/07/23 08:26:06;;;;;;;;;;;;;;;27.21;100.00;99255.53;5053372;28;19917;-39
2022/07/23 08:28:34;;;;;;;;;;;;;;;26.11;100.00;99270.25;5051954;28;20061;-39
2022/07/23 08:31:00;;;;;;;;;;;;;;;25.92;100.00;99270.28;5049299;28;19920;-39
2022/07/23 08:33:25;;;;;;;;;;;;;;;25.95;100.00;99264.72;5049749;28;20056;-39
2022/07/23 08:35:52;;;;;;;;;;;;;;;26.45;100.00;99267.09;5051498;28;19978;-39
2022/07/23 08:38:19;;;;;;;;;;;;;;;26.11;100.00;99264.13;5052047;28;19926;-39
2022/07/23 08:40:45;;;;;;;;;;;;;;;26.47;100.00;99250.13;5050745;28;19920;-39
2022/07/23 08:43:11;;;;;;;;;;;;;;;28.25;100.00;99258.41;5050081;28;19954;-39
2022/07/23 08:45:38;;;;;;;;;;;;;;;27.06;100.00;99271.88;5052399;28;19927;-39
2022/07/23 08:48:04;;;;;;;;;;;;;;;25.48;100.00;99283.00;5053502;28;21020;-39
2022/07/23 08:50:29;;;;;;;;;;;;;;;26.91;100.00;99273.34;5048900;28;19924;-39
2022/07/23 08:52:56;;;;;;;;;;;;;;;27.09;100.00;99276.84;5046515;28;20455;-39
2022/07/23 08:55:21;;;;;;;;;;;;;;;26.58;100.00;99269.47;5049990;28;20538;-39
2022/07/23 08:57:47;;;;;;;;;;;;;;;25.35;100.00;99283.28;5052603;28;20003;-39
2022/07/23 09:00:13;;;;;;;;;;;;;;;26.65;100.00;99276.66;5048622;28;19920;-39
2022/07/23 09:02:39;;;;;;;;;;;;;;;27.32;100.00;99273.81;5052001;28;20071;-39
2022/07/23 09:05:04;;;;;;;;;;;;;;;27.09;100.00;99274.19;5051124;28;20399;-39
2022/07/23 09:07:29;;;;;;;;;;;;;;;27.86;100.00;99269.38;5051722;28;19928;-39
2022/07/23 09:10:08;;;;;;;;;;;;;;;29.14;98.42;99267.78;5049817;28;19925;-39
2022/07/23 09:12:34;;;;;;;;;;;;;;;28.47;99.54;99277.44;5051452;28;20877;-39
2022/07/23 09:15:03;;;;;;;;;;;;;;;27.20;100.00;99282.91;5050254;28;19920;-39
2022/07/23 09:17:28;;;;;;;;;;;;;;;26.92;100.00;99275.00;5050471;28;20617;-39
2022/07/23 09:19:54;;;;;;;;;;;;;;;26.47;100.00;99281.81;5047727;28;19978;-39
2022/07/23 09:22:22;;;;;;;;;;;;;;;26.52;100.00;99284.03;5050746;28;19916;-39
2022/07/23 09:25:04;;;;;;;;;;;;;;;26.76;100.00;99286.22;5051108;28;20011;-39
2022/07/23 09:27:47;;;;;;;;;;;;;;;27.06;100.00;99279.78;5050622;28;20015;-39
2022/07/23 09:30:13;;;;;;;;;;;;;;;27.71;100.00;99269.06;5049839;28;19990;-39
2022/07/23 09:32:41;;;;;;;;;;;;;;;27.73;100.00;99274.19;5053010;28;19920;-39
2022/07/23 09:35:07;;;;;;;;;;;;;;;26.51;100.00;99269.19;5050971;28;20015;-39
2022/07/23 09:37:32;;;;;;;;;;;;;;;28.88;90.42;99262.56;5052471;28;20477;-39
2022/07/23 09:40:04;;;;;;;;;;;;;;;27.86;94.14;99269.38;5052026;28;19925;-39
2022/07/23 09:42:30;;;;;;;;;;;;;;;28.28;96.45;99273.13;5048557;28;19921;-39
2022/07/23 09:44:56;;;;;;;;;;;;;;;26.92;94.78;99278.47;5055431;28;19973;-39
2022/07/23 09:47:22;;;;;;;;;;;;;;;27.20;100.00;99278.50;5053006;28;19920;-39
2022/07/23 09:50:08;;;;;;;;;;;;;;;27.85;99.70;99280.97;5055132;28;21057;-39
2022/07/23 09:52:47;;;;;;;;;;;;;;;26.10;98.36;99281.78;5054422;28;19917;-39
2022/07/23 09:55:13;;;;;;;;;;;;;;;27.51;100.00;99278.97;5036081;28;19912;-39
2022/07/23 09:57:39;;;;;;;;;;;;;;;28.68;96.57;99269.91;5054154;28;19997;-39
2022/07/23 10:00:05;;;;;;;;;;;;;;;29.33;92.88;99269.34;5054594;28;19977;-40
2022/07/23 10:02:31;;;;;;;;;;;;;;;29.43;90.67;99277.13;5056226;28;20309;-39
2022/07/23 10:04:57;;;;;;;;;;;;;;;28.53;95.16;99282.94;5055303;28;19968;-39
2022/07/23 10:07:23;;;;;;;;;;;;;;;29.24;91.90;99274.78;5053456;28;20035;-39
2022/07/23 10:09:52;;;;;;;;;;;;;;;30.17;87.08;99271.84;5051595;28;19931;-39
2022/07/23 10:14:51;;;;;;;;;;;;;;;29.07;90.80;99289.78;5055048;28;20254;-39
2022/07/23 10:17:17;;;;;;;;;;;;;;;27.67;95.53;99293.34;5053385;28;19920;-39
2022/07/23 10:19:42;;;;;;;;;;;;;;;28.26;92.47;99283.06;5054202;28;19924;-39
2022/07/23 10:22:08;;;;;;;;;;;;;;;28.24;91.06;99279.75;5050896;28;20040;-40
2022/07/23 10:24:53;;;;;;;;;;;;;;;30.33;84.03;99273.69;5051462;28;19952;-39
2022/07/23 10:27:34;;;;;;;;;;;;;;;29.67;79.72;99280.81;5054148;28;19912;-40
2022/07/23 10:30:07;;;;;;;;;;;;;;;30.72;81.00;99268.38;5055332;28;19921;-39
2022/07/23 10:32:55;;;;;;;;;;;;;;;28.22;90.00;99282.56;5054641;28;19924;-39
2022/07/23 10:35:20;;;;;;;;;;;;;;;29.73;84.87;99265.09;5035711;28;20362;-56
2022/07/23 10:37:47;;;;;;;;;;;;;;;29.97;85.49;99266.91;5051309;28;19931;-39
2022/07/23 10:40:17;;;;;;;;;;;;;;;29.10;88.78;99269.13;5041886;28;20673;-39
2022/07/23 10:42:43;;;;;;;;;;;;;;;30.46;81.57;99250.06;5051441;28;19960;-39
2022/07/23 10:45:27;;;;;;;;;;;;;;;29.39;84.11;99270.50;5052194;28;20417;-40
2022/07/23 10:47:53;;;;;;;;;;;;;;;28.33;88.46;99268.22;5052350;28;19924;-40
2022/07/23 10:50:19;;;;;;;;;;;;;;;29.15;88.76;99266.00;5051359;28;20382;-39
2022/07/23 10:53:03;;;;;;;;;;;;;;;28.83;90.00;99266.66;5052412;28;19944;-39
2022/07/23 10:55:28;;;;;;;;;;;;;;;27.88;86.28;99270.06;5051403;28;20638;-40
2022/07/23 10:57:53;;;;;;;;;;;;;;;28.33;93.80;99271.69;5051949;28;19977;-39
2022/07/23 11:00:37;;;;;;;;;;;;;;;28.07;92.59;99276.16;5051529;28;19920;-40
2022/07/23 11:03:06;;;;;;;;;;;;;;;28.26;95.97;99270.66;5051376;28;19932;-40
2022/07/23 11:05:42;;;;;;;;;;;;;;;29.86;91.56;99269.91;5054994;28;19981;-39
2022/07/23 11:08:10;;;;;;;;;;;;;;;28.88;92.90;99274.97;5050431;28;19920;-39
2022/07/23 11:10:52;;;;;;;;;;;;;;;27.60;92.58;99273.75;5053846;28;20685;-39
2022/07/23 11:13:35;;;;;;;;;;;;;;;28.89;94.19;99269.50;5054030;28;20540;-40
2022/07/23 11:16:00;;;;;;;;;;;;;;;29.16;89.31;99275.59;5052535;28;19927;-39
2022/07/23 11:18:44;;;;;;;;;;;;;;;29.82;85.65;99265.91;5049028;28;19920;-39
2022/07/23 11:23:59;;;;;;;;;;;;;;;30.69;79.01;99257.28;5054524;28;20310;-40
2022/07/23 11:26:40;;;;;;;;;;;;;;;30.25;81.74;99257.75;5051371;28;20494;-39
2022/07/23 11:29:24;;;;;;;;;;;;;;;30.79;80.83;99249.91;5050340;28;20367;-39
2022/07/23 11:31:53;;;;;;;;;;;;;;;32.70;68.45;99255.25;5049658;28;19920;-40
2022/07/23 11:34:31;;;;;;;;;;;;;;;32.40;67.03;99244.56;5050261;28;19920;-39
2022/07/23 11:36:56;;;;;;;;;;;;;;;31.37;68.49;99242.47;5051098;28;19920;-39
2022/07/23 11:39:21;;;;;;;;;;;;;;;30.77;78.64;99251.94;5052392;28;20169;-40
2022/07/23 11:41:47;;;;;;;;;;;;;;;30.26;80.23;99252.25;5049471;28;19928;-39
2022/07/23 11:44:28;;;;;;;;;;;;;;;30.56;79.00;99255.16;5052480;28;19931;-39
2022/07/23 11:47:03;;;;;;;;;;;;;;;30.34;79.90;99252.25;5051126;28;19921;-40
2022/07/23 11:49:29;;;;;;;;;;;;;;;30.63;77.87;99245.50;5051323;28;19963;-40
2022/07/23 11:52:10;;;;;;;;;;;;;;;29.00;76.20;99263.09;5053101;28;20022;-40
2022/07/23 11:54:37;;;;;;;;;;;;;;;31.07;69.25;99242.34;5053646;28;19920;-40
2022/07/23 11:57:03;;;;;;;;;;;;;;;30.74;75.60;99253.09;5052026;28;19924;-39
2022/07/23 11:59:29;;;;;;;;;;;;;;;30.54;75.18;99251.84;5052540;28;20285;-40
2022/07/23 12:02:01;;;;;;;;;;;;;;;31.78;66.74;99250.19;5051105;28;20388;-40
2022/07/23 12:04:37;;;;;;;;;;;;;;;31.30;73.45;99246.88;5052227;28;19999;-40
2022/07/23 12:07:02;;;;;;;;;;;;;;;31.18;69.36;99241.94;5050733;28;19975;-40
2022/07/23 12:09:27;;;;;;;;;;;;;;;31.22;74.42;99243.22;5049466;28;20015;-40
2022/07/23 12:11:56;;;;;;;;;;;;;;;31.08;64.87;99246.66;5052445;28;19923;-40
2022/07/23 12:14:22;;;;;;;;;;;;;;;31.90;72.67;99243.41;5054045;28;19924;-40
2022/07/23 12:16:47;;;;;;;;;;;;;;;31.43;71.85;99239.13;5053401;28;19920;-40
2022/07/23 12:19:13;;;;;;;;;;;;;;;31.15;71.03;99242.28;5050162;28;19924;-40
2022/07/23 12:21:38;;;;;;;;;;;;;;;32.28;71.85;99235.41;5051998;28;20481;-40
2022/07/23 12:24:07;;;;;;;;;;;;;;;31.65;70.40;99240.94;5049121;28;19927;-40
2022/07/23 12:26:32;;;;;;;;;;;;;;;33.16;64.40;99233.66;5052464;28;21196;-40
2022/07/23 12:28:57;;;;;;;;;;;;;;;32.49;59.55;99242.66;5050504;28;19927;-40
2022/07/23 12:31:26;;;;;;;;;;;;;;;32.13;65.22;99247.88;5053312;28;20022;-40
2022/07/23 12:33:51;;;;;;;;;;;;;;;32.06;70.33;99245.94;5032369;28;19924;-40
2022/07/23 12:36:17;;;;;;;;;;;;;;;32.86;62.37;99244.38;5052214;28;19969;-40
2022/07/23 12:38:48;;;;;;;;;;;;;;;31.42;66.88;99248.13;5050720;28;19924;-40
2022/07/23 12:41:14;;;;;;;;;;;;;;;31.58;63.00;99245.34;5052394;28;19981;-40